Pilot Information

METAR/TAF »

TAF 14.12.2018

TAF EGTC 140903Z 1409/1418 08005KT 9000 SCT045 BECMG 1409/1411 9999

METAR 14.12.2018

EGTC 140950Z 00000KT 9999 BKN048 01/00 Q1022

Pilot Information

Cranfield Airport has approval to operate 24 hours a day 365 days a year and has no slot restrictions in place.

Therefore, with prior arrangement business jet aircraft can land and take off at Cranfield Airport at any time - day or night.

With an 1800m runway, supported by ILS and GNSS approaches, Cranfield Airport can accommodate all business jets up to Global Express, G550 and BBJ types.

Avgas and Jet A1 fuel is always readily available and, if you need a speedy turnaround, we can ensure that your fuel bowser is on standby and awaiting your arrival on our dedicated handling apron.

MMIKE 940X350

For flights originating from outside the UK, Cranfield Airport benefits from remote customs and immigration arrangements.  Documentation is completed and submitted to UK Border Force before the flight with the result that passengers are cleared to proceed to their onward destination within minutes of arrival.